sensor_id;sensor_type;location;lat;lon;timestamp;P1;durP1;ratioP1;P2;durP2;ratioP2
71655;SDS011;59497;48.798;8.816;2023-05-14T00:00:12;6.80;;;5.78;;
71655;SDS011;59497;48.798;8.816;2023-05-14T00:02:38;8.50;;;6.40;;
71655;SDS011;59497;48.798;8.816;2023-05-14T00:05:03;7.60;;;5.70;;
71655;SDS011;59497;48.798;8.816;2023-05-14T00:07:28;7.40;;;5.70;;
71655;SDS011;59497;48.798;8.816;2023-05-14T00:09:55;6.73;;;5.67;;
71655;SDS011;59497;48.798;8.816;2023-05-14T00:12:20;7.38;;;6.32;;
71655;SDS011;59497;48.798;8.816;2023-05-14T00:14:45;6.83;;;5.53;;
71655;SDS011;59497;48.798;8.816;2023-05-14T00:17:11;8.00;;;7.03;;
71655;SDS011;59497;48.798;8.816;2023-05-14T00:19:36;6.93;;;6.00;;
71655;SDS011;59497;48.798;8.816;2023-05-14T00:22:01;7.53;;;5.30;;
71655;SDS011;59497;48.798;8.816;2023-05-14T00:24:26;5.90;;;4.93;;
71655;SDS011;59497;48.798;8.816;2023-05-14T00:26:51;7.18;;;4.72;;
71655;SDS011;59497;48.798;8.816;2023-05-14T00:29:17;7.90;;;5.63;;
71655;SDS011;59497;48.798;8.816;2023-05-14T00:31:42;6.40;;;5.05;;
71655;SDS011;59497;48.798;8.816;2023-05-14T00:34:07;7.43;;;5.47;;
71655;SDS011;59497;48.798;8.816;2023-05-14T00:36:32;8.27;;;5.67;;
71655;SDS011;59497;48.798;8.816;2023-05-14T00:38:57;7.80;;;5.60;;
71655;SDS011;59497;48.798;8.816;2023-05-14T00:41:22;6.55;;;5.15;;
71655;SDS011;59497;48.798;8.816;2023-05-14T00:43:48;7.28;;;5.47;;
71655;SDS011;59497;48.798;8.816;2023-05-14T00:46:13;7.90;;;5.70;;
71655;SDS011;59497;48.798;8.816;2023-05-14T00:48:38;7.70;;;5.37;;
71655;SDS011;59497;48.798;8.816;2023-05-14T00:51:04;7.15;;;5.43;;
71655;SDS011;59497;48.798;8.816;2023-05-14T00:53:29;7.43;;;5.30;;
71655;SDS011;59497;48.798;8.816;2023-05-14T00:55:54;7.07;;;5.40;;
71655;SDS011;59497;48.798;8.816;2023-05-14T00:58:19;6.70;;;5.80;;
71655;SDS011;59497;48.798;8.816;2023-05-14T01:00:45;7.67;;;5.53;;
71655;SDS011;59497;48.798;8.816;2023-05-14T01:03:10;7.33;;;5.27;;
71655;SDS011;59497;48.798;8.816;2023-05-14T01:05:44;8.23;;;5.95;;
71655;SDS011;59497;48.798;8.816;2023-05-14T01:08:22;6.57;;;5.13;;
71655;SDS011;59497;48.798;8.816;2023-05-14T01:10:56;7.28;;;4.82;;
71655;SDS011;59497;48.798;8.816;2023-05-14T01:13:30;7.15;;;5.63;;
71655;SDS011;59497;48.798;8.816;2023-05-14T01:15:57;9.90;;;5.85;;
71655;SDS011;59497;48.798;8.816;2023-05-14T01:18:23;7.37;;;5.70;;
71655;SDS011;59497;48.798;8.816;2023-05-14T01:20:49;10.88;;;6.60;;
71655;SDS011;59497;48.798;8.816;2023-05-14T01:23:16;7.87;;;5.83;;
71655;SDS011;59497;48.798;8.816;2023-05-14T01:25:41;10.20;;;5.27;;
71655;SDS011;59497;48.798;8.816;2023-05-14T01:28:14;6.70;;;5.07;;
71655;SDS011;59497;48.798;8.816;2023-05-14T01:30:48;7.28;;;4.78;;
71655;SDS011;59497;48.798;8.816;2023-05-14T01:33:16;8.27;;;4.95;;
71655;SDS011;59497;48.798;8.816;2023-05-14T01:35:42;6.78;;;5.03;;
71655;SDS011;59497;48.798;8.816;2023-05-14T01:38:09;6.90;;;4.70;;
71655;SDS011;59497;48.798;8.816;2023-05-14T01:40:35;7.73;;;4.73;;
71655;SDS011;59497;48.798;8.816;2023-05-14T01:43:01;7.32;;;5.15;;
71655;SDS011;59497;48.798;8.816;2023-05-14T01:45:26;6.43;;;4.60;;
71655;SDS011;59497;48.798;8.816;2023-05-14T01:47:51;6.67;;;4.90;;
71655;SDS011;59497;48.798;8.816;2023-05-14T01:50:16;6.50;;;4.20;;
71655;SDS011;59497;48.798;8.816;2023-05-14T01:52:42;7.70;;;5.07;;
71655;SDS011;59497;48.798;8.816;2023-05-14T01:55:07;7.03;;;5.00;;
71655;SDS011;59497;48.798;8.816;2023-05-14T01:57:32;6.38;;;5.20;;
71655;SDS011;59497;48.798;8.816;2023-05-14T01:59:58;8.13;;;5.20;;
71655;SDS011;59497;48.798;8.816;2023-05-14T02:02:23;8.40;;;5.10;;
71655;SDS011;59497;48.798;8.816;2023-05-14T02:04:48;7.77;;;5.20;;
71655;SDS011;59497;48.798;8.816;2023-05-14T02:07:13;5.83;;;4.93;;
71655;SDS011;59497;48.798;8.816;2023-05-14T02:09:39;7.53;;;5.33;;
71655;SDS011;59497;48.798;8.816;2023-05-14T02:12:05;6.82;;;4.88;;
71655;SDS011;59497;48.798;8.816;2023-05-14T02:14:30;6.47;;;5.07;;
71655;SDS011;59497;48.798;8.816;2023-05-14T02:16:55;7.20;;;4.87;;
71655;SDS011;59497;48.798;8.816;2023-05-14T02:19:20;6.93;;;4.63;;
71655;SDS011;59497;48.798;8.816;2023-05-14T02:21:46;6.07;;;4.60;;
71655;SDS011;59497;48.798;8.816;2023-05-14T02:24:11;5.60;;;5.00;;
71655;SDS011;59497;48.798;8.816;2023-05-14T02:26:37;6.80;;;4.55;;
71655;SDS011;59497;48.798;8.816;2023-05-14T02:29:02;7.00;;;5.25;;
71655;SDS011;59497;48.798;8.816;2023-05-14T02:31:27;7.00;;;5.60;;
71655;SDS011;59497;48.798;8.816;2023-05-14T02:33:52;8.10;;;5.35;;
71655;SDS011;59497;48.798;8.816;2023-05-14T02:36:17;7.80;;;5.70;;
71655;SDS011;59497;48.798;8.816;2023-05-14T02:38:43;8.17;;;5.50;;
71655;SDS011;59497;48.798;8.816;2023-05-14T02:41:08;7.60;;;5.63;;
71655;SDS011;59497;48.798;8.816;2023-05-14T02:43:33;7.03;;;5.30;;
71655;SDS011;59497;48.798;8.816;2023-05-14T02:45:58;8.93;;;5.97;;
71655;SDS011;59497;48.798;8.816;2023-05-14T02:48:23;7.43;;;5.53;;
71655;SDS011;59497;48.798;8.816;2023-05-14T02:50:48;7.83;;;5.20;;
71655;SDS011;59497;48.798;8.816;2023-05-14T02:53:15;7.47;;;5.57;;
71655;SDS011;59497;48.798;8.816;2023-05-14T02:55:40;7.77;;;5.50;;
71655;SDS011;59497;48.798;8.816;2023-05-14T02:58:05;9.00;;;5.70;;
71655;SDS011;59497;48.798;8.816;2023-05-14T03:00:30;8.50;;;5.57;;
71655;SDS011;59497;48.798;8.816;2023-05-14T03:02:55;8.13;;;5.70;;
71655;SDS011;59497;48.798;8.816;2023-05-14T03:05:20;8.90;;;5.83;;
71655;SDS011;59497;48.798;8.816;2023-05-14T03:07:46;7.57;;;5.70;;
71655;SDS011;59497;48.798;8.816;2023-05-14T03:10:11;7.80;;;5.93;;
71655;SDS011;59497;48.798;8.816;2023-05-14T03:12:36;7.97;;;5.28;;
71655;SDS011;59497;48.798;8.816;2023-05-14T03:15:01;7.60;;;5.70;;
71655;SDS011;59497;48.798;8.816;2023-05-14T03:17:26;8.40;;;5.73;;
71655;SDS011;59497;48.798;8.816;2023-05-14T03:19:51;7.23;;;6.17;;
71655;SDS011;59497;48.798;8.816;2023-05-14T03:22:17;7.90;;;5.55;;
71655;SDS011;59497;48.798;8.816;2023-05-14T03:24:42;7.93;;;5.60;;
71655;SDS011;59497;48.798;8.816;2023-05-14T03:27:07;7.17;;;5.27;;
71655;SDS011;59497;48.798;8.816;2023-05-14T03:29:32;7.40;;;5.27;;
71655;SDS011;59497;48.798;8.816;2023-05-14T03:31:57;6.97;;;5.20;;
71655;SDS011;59497;48.798;8.816;2023-05-14T03:34:23;6.93;;;4.63;;
71655;SDS011;59497;48.798;8.816;2023-05-14T03:36:48;8.50;;;6.00;;
71655;SDS011;59497;48.798;8.816;2023-05-14T03:39:13;7.57;;;5.33;;
71655;SDS011;59497;48.798;8.816;2023-05-14T03:41:45;7.60;;;5.40;;
71655;SDS011;59497;48.798;8.816;2023-05-14T03:44:10;7.67;;;5.47;;
71655;SDS011;59497;48.798;8.816;2023-05-14T03:46:36;6.50;;;4.70;;
71655;SDS011;59497;48.798;8.816;2023-05-14T03:49:01;6.77;;;5.10;;
71655;SDS011;59497;48.798;8.816;2023-05-14T03:51:26;7.50;;;5.33;;
71655;SDS011;59497;48.798;8.816;2023-05-14T03:53:51;7.57;;;5.70;;
71655;SDS011;59497;48.798;8.816;2023-05-14T03:56:16;7.82;;;6.00;;
71655;SDS011;59497;48.798;8.816;2023-05-14T03:58:41;7.50;;;5.40;;
71655;SDS011;59497;48.798;8.816;2023-05-14T04:01:07;7.45;;;5.75;;
71655;SDS011;59497;48.798;8.816;2023-05-14T04:03:32;9.15;;;5.45;;
71655;SDS011;59497;48.798;8.816;2023-05-14T04:05:57;8.40;;;6.25;;
71655;SDS011;59497;48.798;8.816;2023-05-14T04:08:22;7.43;;;5.80;;
71655;SDS011;59497;48.798;8.816;2023-05-14T04:10:48;7.97;;;5.70;;
71655;SDS011;59497;48.798;8.816;2023-05-14T04:13:13;8.80;;;5.73;;
71655;SDS011;59497;48.798;8.816;2023-05-14T04:15:38;7.80;;;5.53;;
71655;SDS011;59497;48.798;8.816;2023-05-14T04:18:04;7.63;;;5.13;;
71655;SDS011;59497;48.798;8.816;2023-05-14T04:20:29;9.57;;;5.80;;
71655;SDS011;59497;48.798;8.816;2023-05-14T04:22:54;7.57;;;5.37;;
71655;SDS011;59497;48.798;8.816;2023-05-14T04:25:19;8.73;;;5.53;;
71655;SDS011;59497;48.798;8.816;2023-05-14T04:27:44;9.07;;;5.83;;
71655;SDS011;59497;48.798;8.816;2023-05-14T04:30:10;7.87;;;6.10;;
71655;SDS011;59497;48.798;8.816;2023-05-14T04:32:35;8.30;;;5.80;;
71655;SDS011;59497;48.798;8.816;2023-05-14T04:35:01;7.77;;;5.47;;
71655;SDS011;59497;48.798;8.816;2023-05-14T04:37:26;7.80;;;5.90;;
71655;SDS011;59497;48.798;8.816;2023-05-14T04:39:51;7.90;;;5.47;;
71655;SDS011;59497;48.798;8.816;2023-05-14T04:42:16;8.80;;;5.30;;
71655;SDS011;59497;48.798;8.816;2023-05-14T04:44:41;8.83;;;5.60;;
71655;SDS011;59497;48.798;8.816;2023-05-14T04:47:06;9.10;;;5.73;;
71655;SDS011;59497;48.798;8.816;2023-05-14T04:49:31;7.77;;;5.87;;
71655;SDS011;59497;48.798;8.816;2023-05-14T04:51:57;10.10;;;6.10;;
71655;SDS011;59497;48.798;8.816;2023-05-14T04:54:22;8.17;;;6.23;;
71655;SDS011;59497;48.798;8.816;2023-05-14T04:56:47;12.17;;;6.10;;
71655;SDS011;59497;48.798;8.816;2023-05-14T04:59:13;8.33;;;5.97;;
71655;SDS011;59497;48.798;8.816;2023-05-14T05:01:38;9.93;;;6.07;;
71655;SDS011;59497;48.798;8.816;2023-05-14T05:04:03;9.17;;;5.80;;
71655;SDS011;59497;48.798;8.816;2023-05-14T05:06:28;8.00;;;5.50;;
71655;SDS011;59497;48.798;8.816;2023-05-14T05:08:53;10.27;;;6.00;;
71655;SDS011;59497;48.798;8.816;2023-05-14T05:11:19;10.17;;;6.73;;
71655;SDS011;59497;48.798;8.816;2023-05-14T05:13:45;8.20;;;5.93;;
71655;SDS011;59497;48.798;8.816;2023-05-14T05:16:10;9.83;;;6.00;;
71655;SDS011;59497;48.798;8.816;2023-05-14T05:18:35;9.82;;;6.10;;
71655;SDS011;59497;48.798;8.816;2023-05-14T05:21:00;8.57;;;6.10;;
71655;SDS011;59497;48.798;8.816;2023-05-14T05:23:25;10.18;;;6.65;;
71655;SDS011;59497;48.798;8.816;2023-05-14T05:25:51;9.40;;;6.10;;
71655;SDS011;59497;48.798;8.816;2023-05-14T05:28:16;8.43;;;6.13;;
71655;SDS011;59497;48.798;8.816;2023-05-14T05:30:41;8.97;;;6.17;;
71655;SDS011;59497;48.798;8.816;2023-05-14T05:33:09;9.82;;;6.00;;
71655;SDS011;59497;48.798;8.816;2023-05-14T05:35:34;9.57;;;5.80;;
71655;SDS011;59497;48.798;8.816;2023-05-14T05:37:59;9.87;;;6.23;;
71655;SDS011;59497;48.798;8.816;2023-05-14T05:40:25;10.13;;;6.20;;
71655;SDS011;59497;48.798;8.816;2023-05-14T05:42:50;10.20;;;6.50;;
71655;SDS011;59497;48.798;8.816;2023-05-14T05:45:15;9.45;;;5.95;;
71655;SDS011;59497;48.798;8.816;2023-05-14T05:47:40;8.57;;;6.33;;
71655;SDS011;59497;48.798;8.816;2023-05-14T05:50:05;8.65;;;5.85;;
71655;SDS011;59497;48.798;8.816;2023-05-14T05:52:31;9.47;;;5.97;;
71655;SDS011;59497;48.798;8.816;2023-05-14T05:54:56;9.70;;;5.63;;
71655;SDS011;59497;48.798;8.816;2023-05-14T05:57:21;8.13;;;5.90;;
71655;SDS011;59497;48.798;8.816;2023-05-14T05:59:47;9.32;;;6.55;;
71655;SDS011;59497;48.798;8.816;2023-05-14T06:02:12;9.90;;;6.70;;
71655;SDS011;59497;48.798;8.816;2023-05-14T06:04:37;8.73;;;5.93;;
71655;SDS011;59497;48.798;8.816;2023-05-14T06:07:03;12.97;;;6.50;;
71655;SDS011;59497;48.798;8.816;2023-05-14T06:09:28;9.30;;;6.53;;
71655;SDS011;59497;48.798;8.816;2023-05-14T06:11:53;10.07;;;6.50;;
71655;SDS011;59497;48.798;8.816;2023-05-14T06:14:18;9.63;;;6.63;;
71655;SDS011;59497;48.798;8.816;2023-05-14T06:16:43;10.05;;;6.80;;
71655;SDS011;59497;48.798;8.816;2023-05-14T06:19:08;9.70;;;5.85;;
71655;SDS011;59497;48.798;8.816;2023-05-14T06:21:34;11.50;;;6.27;;
71655;SDS011;59497;48.798;8.816;2023-05-14T06:24:00;9.97;;;6.50;;
71655;SDS011;59497;48.798;8.816;2023-05-14T06:26:25;9.13;;;6.50;;
71655;SDS011;59497;48.798;8.816;2023-05-14T06:28:50;9.87;;;6.40;;
71655;SDS011;59497;48.798;8.816;2023-05-14T06:31:15;10.00;;;6.27;;
71655;SDS011;59497;48.798;8.816;2023-05-14T06:33:40;9.27;;;6.10;;
71655;SDS011;59497;48.798;8.816;2023-05-14T06:36:06;8.27;;;5.53;;
71655;SDS011;59497;48.798;8.816;2023-05-14T06:38:31;9.23;;;6.00;;
71655;SDS011;59497;48.798;8.816;2023-05-14T06:40:57;8.67;;;6.30;;
71655;SDS011;59497;48.798;8.816;2023-05-14T06:43:22;9.97;;;6.80;;
71655;SDS011;59497;48.798;8.816;2023-05-14T06:45:47;8.17;;;6.00;;
71655;SDS011;59497;48.798;8.816;2023-05-14T06:48:13;9.65;;;6.18;;
71655;SDS011;59497;48.798;8.816;2023-05-14T06:50:38;10.13;;;6.40;;
71655;SDS011;59497;48.798;8.816;2023-05-14T06:53:03;8.90;;;6.03;;
71655;SDS011;59497;48.798;8.816;2023-05-14T06:55:29;10.90;;;6.57;;
71655;SDS011;59497;48.798;8.816;2023-05-14T06:57:54;10.60;;;7.07;;
71655;SDS011;59497;48.798;8.816;2023-05-14T07:00:19;11.70;;;6.87;;
71655;SDS011;59497;48.798;8.816;2023-05-14T07:02:44;10.37;;;6.27;;
71655;SDS011;59497;48.798;8.816;2023-05-14T07:05:09;9.13;;;6.20;;
71655;SDS011;59497;48.798;8.816;2023-05-14T07:07:35;9.43;;;6.73;;
71655;SDS011;59497;48.798;8.816;2023-05-14T07:10:00;8.97;;;5.53;;
71655;SDS011;59497;48.798;8.816;2023-05-14T07:12:25;10.40;;;7.00;;
71655;SDS011;59497;48.798;8.816;2023-05-14T07:14:51;9.13;;;6.47;;
71655;SDS011;59497;48.798;8.816;2023-05-14T07:17:16;8.97;;;5.80;;
71655;SDS011;59497;48.798;8.816;2023-05-14T07:19:41;9.10;;;6.10;;
71655;SDS011;59497;48.798;8.816;2023-05-14T07:22:06;10.27;;;7.07;;
71655;SDS011;59497;48.798;8.816;2023-05-14T07:24:32;9.30;;;6.53;;
71655;SDS011;59497;48.798;8.816;2023-05-14T07:26:57;11.40;;;6.47;;
71655;SDS011;59497;48.798;8.816;2023-05-14T07:29:22;10.50;;;6.40;;
71655;SDS011;59497;48.798;8.816;2023-05-14T07:31:49;9.23;;;6.40;;
71655;SDS011;59497;48.798;8.816;2023-05-14T07:34:14;10.27;;;6.37;;
71655;SDS011;59497;48.798;8.816;2023-05-14T07:36:39;8.10;;;6.17;;
71655;SDS011;59497;48.798;8.816;2023-05-14T07:39:05;11.30;;;6.57;;
71655;SDS011;59497;48.798;8.816;2023-05-14T07:41:30;9.40;;;6.60;;
71655;SDS011;59497;48.798;8.816;2023-05-14T07:43:55;9.73;;;6.17;;
71655;SDS011;59497;48.798;8.816;2023-05-14T07:46:20;9.80;;;6.90;;
71655;SDS011;59497;48.798;8.816;2023-05-14T07:48:45;8.73;;;6.03;;
71655;SDS011;59497;48.798;8.816;2023-05-14T07:51:11;10.07;;;7.83;;
71655;SDS011;59497;48.798;8.816;2023-05-14T07:53:36;10.13;;;6.60;;
71655;SDS011;59497;48.798;8.816;2023-05-14T07:56:01;10.87;;;6.83;;
71655;SDS011;59497;48.798;8.816;2023-05-14T07:58:26;8.53;;;5.80;;
71655;SDS011;59497;48.798;8.816;2023-05-14T08:00:52;8.90;;;6.07;;
71655;SDS011;59497;48.798;8.816;2023-05-14T08:03:17;9.13;;;6.30;;
71655;SDS011;59497;48.798;8.816;2023-05-14T08:05:43;11.23;;;6.87;;
71655;SDS011;59497;48.798;8.816;2023-05-14T08:08:08;10.07;;;7.15;;
71655;SDS011;59497;48.798;8.816;2023-05-14T08:10:33;9.93;;;6.27;;
71655;SDS011;59497;48.798;8.816;2023-05-14T08:12:58;9.13;;;6.20;;
71655;SDS011;59497;48.798;8.816;2023-05-14T08:15:23;8.70;;;5.93;;
71655;SDS011;59497;48.798;8.816;2023-05-14T08:17:48;10.70;;;6.03;;
71655;SDS011;59497;48.798;8.816;2023-05-14T08:20:14;8.87;;;6.40;;
71655;SDS011;59497;48.798;8.816;2023-05-14T08:22:39;9.23;;;6.07;;
71655;SDS011;59497;48.798;8.816;2023-05-14T08:25:04;8.93;;;6.70;;
71655;SDS011;59497;48.798;8.816;2023-05-14T08:27:30;10.20;;;6.70;;
71655;SDS011;59497;48.798;8.816;2023-05-14T08:29:55;9.80;;;6.80;;
71655;SDS011;59497;48.798;8.816;2023-05-14T08:32:21;9.13;;;6.67;;
71655;SDS011;59497;48.798;8.816;2023-05-14T08:34:46;10.82;;;6.55;;
71655;SDS011;59497;48.798;8.816;2023-05-14T08:37:11;9.40;;;6.47;;
71655;SDS011;59497;48.798;8.816;2023-05-14T08:39:36;10.00;;;6.47;;
71655;SDS011;59497;48.798;8.816;2023-05-14T08:42:01;10.83;;;7.33;;
71655;SDS011;59497;48.798;8.816;2023-05-14T08:46:58;12.10;;;7.03;;
71655;SDS011;59497;48.798;8.816;2023-05-14T08:49:27;10.40;;;6.75;;
71655;SDS011;59497;48.798;8.816;2023-05-14T08:51:56;10.27;;;6.70;;
71655;SDS011;59497;48.798;8.816;2023-05-14T08:54:22;10.60;;;7.43;;
71655;SDS011;59497;48.798;8.816;2023-05-14T08:56:49;10.15;;;7.07;;
71655;SDS011;59497;48.798;8.816;2023-05-14T08:59:15;11.90;;;8.33;;
71655;SDS011;59497;48.798;8.816;2023-05-14T09:01:42;10.90;;;7.37;;
71655;SDS011;59497;48.798;8.816;2023-05-14T09:04:08;10.40;;;7.05;;
71655;SDS011;59497;48.798;8.816;2023-05-14T09:06:35;9.75;;;6.78;;
71655;SDS011;59497;48.798;8.816;2023-05-14T09:09:01;10.30;;;6.75;;
71655;SDS011;59497;48.798;8.816;2023-05-14T09:11:26;9.30;;;7.10;;
71655;SDS011;59497;48.798;8.816;2023-05-14T09:13:51;10.23;;;7.45;;
71655;SDS011;59497;48.798;8.816;2023-05-14T09:16:17;9.03;;;6.27;;
71655;SDS011;59497;48.798;8.816;2023-05-14T09:18:43;9.03;;;6.83;;
71655;SDS011;59497;48.798;8.816;2023-05-14T09:21:08;6.75;;;5.30;;
71655;SDS011;59497;48.798;8.816;2023-05-14T09:23:34;7.80;;;5.30;;
71655;SDS011;59497;48.798;8.816;2023-05-14T09:26:02;7.40;;;5.90;;
71655;SDS011;59497;48.798;8.816;2023-05-14T09:28:27;7.88;;;5.80;;
71655;SDS011;59497;48.798;8.816;2023-05-14T09:30:54;9.43;;;6.75;;
71655;SDS011;59497;48.798;8.816;2023-05-14T09:33:26;9.07;;;5.77;;
71655;SDS011;59497;48.798;8.816;2023-05-14T09:35:54;8.33;;;5.90;;
71655;SDS011;59497;48.798;8.816;2023-05-14T09:38:19;7.97;;;5.63;;
71655;SDS011;59497;48.798;8.816;2023-05-14T09:40:45;6.20;;;4.83;;
71655;SDS011;59497;48.798;8.816;2023-05-14T09:43:10;6.78;;;5.20;;
71655;SDS011;59497;48.798;8.816;2023-05-14T09:45:35;6.50;;;4.73;;
71655;SDS011;59497;48.798;8.816;2023-05-14T09:48:01;5.70;;;4.93;;
71655;SDS011;59497;48.798;8.816;2023-05-14T09:50:26;6.87;;;5.10;;
71655;SDS011;59497;48.798;8.816;2023-05-14T09:52:53;6.40;;;5.25;;
71655;SDS011;59497;48.798;8.816;2023-05-14T09:55:19;6.55;;;5.05;;
71655;SDS011;59497;48.798;8.816;2023-05-14T09:57:44;5.53;;;4.73;;
71655;SDS011;59497;48.798;8.816;2023-05-14T10:00:09;6.90;;;5.23;;
71655;SDS011;59497;48.798;8.816;2023-05-14T10:02:36;6.97;;;4.60;;
71655;SDS011;59497;48.798;8.816;2023-05-14T10:05:03;5.80;;;4.40;;
71655;SDS011;59497;48.798;8.816;2023-05-14T10:07:30;5.53;;;4.57;;
71655;SDS011;59497;48.798;8.816;2023-05-14T10:09:58;6.63;;;4.40;;
71655;SDS011;59497;48.798;8.816;2023-05-14T10:12:25;5.60;;;4.63;;
71655;SDS011;59497;48.798;8.816;2023-05-14T10:14:52;6.03;;;4.70;;
71655;SDS011;59497;48.798;8.816;2023-05-14T10:17:20;5.50;;;4.45;;
71655;SDS011;59497;48.798;8.816;2023-05-14T10:19:46;5.45;;;4.20;;
71655;SDS011;59497;48.798;8.816;2023-05-14T10:22:11;6.25;;;5.00;;
71655;SDS011;59497;48.798;8.816;2023-05-14T10:24:38;6.25;;;4.90;;
71655;SDS011;59497;48.798;8.816;2023-05-14T10:27:04;6.10;;;4.63;;
71655;SDS011;59497;48.798;8.816;2023-05-14T10:29:33;5.20;;;4.70;;
71655;SDS011;59497;48.798;8.816;2023-05-14T10:31:58;5.68;;;4.75;;
71655;SDS011;59497;48.798;8.816;2023-05-14T10:37:06;4.80;;;4.30;;
71655;SDS011;59497;48.798;8.816;2023-05-14T10:39:48;5.63;;;4.88;;
71655;SDS011;59497;48.798;8.816;2023-05-14T10:42:15;6.70;;;5.32;;
71655;SDS011;59497;48.798;8.816;2023-05-14T10:44:46;5.65;;;4.38;;
71655;SDS011;59497;48.798;8.816;2023-05-14T10:47:11;6.23;;;5.27;;
71655;SDS011;59497;48.798;8.816;2023-05-14T10:49:36;6.00;;;5.33;;
71655;SDS011;59497;48.798;8.816;2023-05-14T10:52:01;6.33;;;5.27;;
71655;SDS011;59497;48.798;8.816;2023-05-14T10:54:26;5.93;;;4.73;;
71655;SDS011;59497;48.798;8.816;2023-05-14T10:56:52;5.17;;;4.67;;
71655;SDS011;59497;48.798;8.816;2023-05-14T10:59:17;5.10;;;4.55;;
71655;SDS011;59497;48.798;8.816;2023-05-14T11:01:42;6.63;;;4.83;;
71655;SDS011;59497;48.798;8.816;2023-05-14T11:04:08;6.10;;;4.70;;
71655;SDS011;59497;48.798;8.816;2023-05-14T11:06:41;5.22;;;4.72;;
71655;SDS011;59497;48.798;8.816;2023-05-14T11:09:07;6.65;;;4.88;;
71655;SDS011;59497;48.798;8.816;2023-05-14T11:11:34;5.00;;;4.17;;
71655;SDS011;59497;48.798;8.816;2023-05-14T11:13:59;5.75;;;4.68;;
71655;SDS011;59497;48.798;8.816;2023-05-14T11:16:24;5.70;;;4.10;;
71655;SDS011;59497;48.798;8.816;2023-05-14T11:19:01;4.82;;;3.92;;
71655;SDS011;59497;48.798;8.816;2023-05-14T11:21:27;5.10;;;4.53;;
71655;SDS011;59497;48.798;8.816;2023-05-14T11:23:53;5.60;;;4.90;;
71655;SDS011;59497;48.798;8.816;2023-05-14T11:26:18;5.05;;;4.32;;
71655;SDS011;59497;48.798;8.816;2023-05-14T11:28:43;6.10;;;5.03;;
71655;SDS011;59497;48.798;8.816;2023-05-14T11:31:09;6.07;;;5.30;;
71655;SDS011;59497;48.798;8.816;2023-05-14T11:33:34;6.30;;;5.10;;
71655;SDS011;59497;48.798;8.816;2023-05-14T11:35:59;5.77;;;4.93;;
71655;SDS011;59497;48.798;8.816;2023-05-14T11:38:25;6.28;;;5.20;;
71655;SDS011;59497;48.798;8.816;2023-05-14T11:40:51;6.30;;;5.27;;
71655;SDS011;59497;48.798;8.816;2023-05-14T11:43:17;5.22;;;4.57;;
71655;SDS011;59497;48.798;8.816;2023-05-14T11:45:42;7.03;;;5.60;;
71655;SDS011;59497;48.798;8.816;2023-05-14T11:48:10;7.40;;;5.77;;
71655;SDS011;59497;48.798;8.816;2023-05-14T11:50:35;7.60;;;6.10;;
71655;SDS011;59497;48.798;8.816;2023-05-14T11:53:01;6.15;;;4.63;;
71655;SDS011;59497;48.798;8.816;2023-05-14T11:55:26;4.97;;;4.27;;
71655;SDS011;59497;48.798;8.816;2023-05-14T11:57:51;4.50;;;4.10;;
71655;SDS011;59497;48.798;8.816;2023-05-14T12:00:16;5.87;;;4.10;;
71655;SDS011;59497;48.798;8.816;2023-05-14T12:02:46;4.55;;;4.15;;
71655;SDS011;59497;48.798;8.816;2023-05-14T12:05:11;4.33;;;3.83;;
71655;SDS011;59497;48.798;8.816;2023-05-14T12:07:37;4.95;;;3.72;;
71655;SDS011;59497;48.798;8.816;2023-05-14T12:10:03;4.07;;;3.53;;
71655;SDS011;59497;48.798;8.816;2023-05-14T12:12:32;5.55;;;4.63;;
71655;SDS011;59497;48.798;8.816;2023-05-14T12:14:58;4.53;;;3.97;;
71655;SDS011;59497;48.798;8.816;2023-05-14T12:17:23;4.82;;;3.67;;
71655;SDS011;59497;48.798;8.816;2023-05-14T12:19:49;5.00;;;4.47;;
71655;SDS011;59497;48.798;8.816;2023-05-14T12:22:16;6.10;;;5.20;;
71655;SDS011;59497;48.798;8.816;2023-05-14T12:24:57;5.72;;;4.45;;
71655;SDS011;59497;48.798;8.816;2023-05-14T12:27:23;5.10;;;3.80;;
71655;SDS011;59497;48.798;8.816;2023-05-14T12:29:49;5.38;;;4.70;;
71655;SDS011;59497;48.798;8.816;2023-05-14T12:32:17;5.80;;;5.10;;
71655;SDS011;59497;48.798;8.816;2023-05-14T12:34:42;7.40;;;5.23;;
71655;SDS011;59497;48.798;8.816;2023-05-14T12:37:07;5.90;;;4.75;;
71655;SDS011;59497;48.798;8.816;2023-05-14T12:39:33;5.77;;;4.53;;
71655;SDS011;59497;48.798;8.816;2023-05-14T12:41:58;6.78;;;5.45;;
71655;SDS011;59497;48.798;8.816;2023-05-14T12:44:23;7.87;;;5.30;;
71655;SDS011;59497;48.798;8.816;2023-05-14T12:46:49;8.10;;;5.67;;
71655;SDS011;59497;48.798;8.816;2023-05-14T12:49:14;7.77;;;5.30;;
71655;SDS011;59497;48.798;8.816;2023-05-14T12:51:39;7.33;;;5.33;;
71655;SDS011;59497;48.798;8.816;2023-05-14T12:54:04;7.20;;;5.57;;
71655;SDS011;59497;48.798;8.816;2023-05-14T12:56:30;7.38;;;6.20;;
71655;SDS011;59497;48.798;8.816;2023-05-14T12:58:56;7.40;;;5.57;;
71655;SDS011;59497;48.798;8.816;2023-05-14T13:01:21;9.90;;;5.83;;
71655;SDS011;59497;48.798;8.816;2023-05-14T13:03:47;8.20;;;5.30;;
71655;SDS011;59497;48.798;8.816;2023-05-14T13:06:12;6.53;;;5.00;;
71655;SDS011;59497;48.798;8.816;2023-05-14T13:08:37;6.47;;;5.30;;
71655;SDS011;59497;48.798;8.816;2023-05-14T13:11:02;6.70;;;5.20;;
71655;SDS011;59497;48.798;8.816;2023-05-14T13:13:29;6.05;;;4.38;;
71655;SDS011;59497;48.798;8.816;2023-05-14T13:15:54;5.30;;;4.63;;
71655;SDS011;59497;48.798;8.816;2023-05-14T13:18:19;6.67;;;5.03;;
71655;SDS011;59497;48.798;8.816;2023-05-14T13:20:45;6.47;;;5.20;;
71655;SDS011;59497;48.798;8.816;2023-05-14T13:23:11;6.47;;;4.80;;
71655;SDS011;59497;48.798;8.816;2023-05-14T13:25:36;6.83;;;5.10;;
71655;SDS011;59497;48.798;8.816;2023-05-14T13:28:01;7.13;;;5.23;;
71655;SDS011;59497;48.798;8.816;2023-05-14T13:30:26;6.20;;;5.00;;
71655;SDS011;59497;48.798;8.816;2023-05-14T13:32:52;5.87;;;4.90;;
71655;SDS011;59497;48.798;8.816;2023-05-14T13:35:17;5.83;;;4.30;;
71655;SDS011;59497;48.798;8.816;2023-05-14T13:37:42;4.77;;;4.30;;
71655;SDS011;59497;48.798;8.816;2023-05-14T13:40:08;6.03;;;4.63;;
71655;SDS011;59497;48.798;8.816;2023-05-14T13:42:33;5.47;;;4.88;;
71655;SDS011;59497;48.798;8.816;2023-05-14T13:44:59;6.67;;;5.00;;
71655;SDS011;59497;48.798;8.816;2023-05-14T13:47:24;6.43;;;4.63;;
71655;SDS011;59497;48.798;8.816;2023-05-14T13:49:50;8.30;;;5.40;;
71655;SDS011;59497;48.798;8.816;2023-05-14T13:52:16;8.43;;;5.07;;
71655;SDS011;59497;48.798;8.816;2023-05-14T13:54:41;7.37;;;5.57;;
71655;SDS011;59497;48.798;8.816;2023-05-14T13:57:06;7.33;;;5.40;;
71655;SDS011;59497;48.798;8.816;2023-05-14T13:59:31;7.07;;;6.17;;
71655;SDS011;59497;48.798;8.816;2023-05-14T14:01:56;9.23;;;6.20;;
71655;SDS011;59497;48.798;8.816;2023-05-14T14:04:21;7.73;;;5.47;;
71655;SDS011;59497;48.798;8.816;2023-05-14T14:06:48;8.32;;;5.85;;
71655;SDS011;59497;48.798;8.816;2023-05-14T14:09:13;10.10;;;5.70;;
71655;SDS011;59497;48.798;8.816;2023-05-14T14:11:39;6.93;;;5.77;;
71655;SDS011;59497;48.798;8.816;2023-05-14T14:14:04;7.25;;;5.97;;
71655;SDS011;59497;48.798;8.816;2023-05-14T14:16:30;7.47;;;6.17;;
71655;SDS011;59497;48.798;8.816;2023-05-14T14:18:55;11.27;;;7.57;;
71655;SDS011;59497;48.798;8.816;2023-05-14T14:21:21;10.53;;;7.43;;
71655;SDS011;59497;48.798;8.816;2023-05-14T14:23:46;7.53;;;6.73;;
71655;SDS011;59497;48.798;8.816;2023-05-14T14:26:11;10.30;;;7.25;;
71655;SDS011;59497;48.798;8.816;2023-05-14T14:28:36;13.00;;;8.35;;
71655;SDS011;59497;48.798;8.816;2023-05-14T14:31:02;22.83;;;13.50;;
71655;SDS011;59497;48.798;8.816;2023-05-14T14:33:27;10.33;;;7.47;;
71655;SDS011;59497;48.798;8.816;2023-05-14T14:35:52;7.90;;;6.10;;
71655;SDS011;59497;48.798;8.816;2023-05-14T14:38:17;7.95;;;5.35;;
71655;SDS011;59497;48.798;8.816;2023-05-14T14:40:42;11.77;;;8.20;;